Time;durP1;ratioP1;P1;durP2;ratioP2;P2;SDS_P1;SDS_P2;PMS_P1;PMS_P2;Temp;Humidity;BMP_temperature;BMP_pressure;BME280_temperature;BME280_humidity;BME280_pressure;Samples;Min_cycle;Max_cycle;Signal;HPM_P1;HPM_P2
2022/11/24 00:00:19;;;;;;;4.07;1.80;;;9.50;99.30;;;;;;935076;149;28324;-78
2022/11/24 00:02:46;;;;;;;5.00;1.93;;;9.40;99.40;;;;;;927245;149;27280;-77
2022/11/24 00:05:12;;;;;;;5.00;1.97;;;9.30;99.60;;;;;;938431;149;27712;-78
2022/11/24 00:07:39;;;;;;;2.67;1.90;;;9.30;99.80;;;;;;936589;149;27376;-77
2022/11/24 00:10:05;;;;;;;3.47;1.50;;;9.30;99.90;;;;;;936304;149;27403;-77
2022/11/24 00:12:32;;;;;;;6.20;2.10;;;9.30;99.90;;;;;;934752;149;27316;-77
2022/11/24 00:14:58;;;;;;;3.43;1.80;;;9.20;99.90;;;;;;935627;149;27341;-77
2022/11/24 00:17:25;;;;;;;3.43;1.97;;;9.20;99.90;;;;;;927340;149;27312;-77
2022/11/24 00:19:52;;;;;;;3.50;1.97;;;9.20;99.90;;;;;;936437;149;27977;-77
2022/11/24 00:22:18;;;;;;;5.67;2.10;;;9.20;99.90;;;;;;937832;149;27361;-78
2022/11/24 00:24:45;;;;;;;3.77;1.73;;;9.20;99.90;;;;;;937693;149;27433;-77
2022/11/24 00:27:11;;;;;;;6.60;2.43;;;9.20;99.90;;;;;;931370;149;27589;-77
2022/11/24 00:29:38;;;;;;;4.53;2.30;;;9.20;99.90;;;;;;923383;151;27883;-78
2022/11/24 00:32:07;;;;;;;3.57;2.20;;;9.10;99.90;;;;;;924379;151;27456;-78
2022/11/24 00:34:34;;;;;;;3.33;1.70;;;9.10;99.90;;;;;;923549;151;27407;-78
2022/11/24 00:37:00;;;;;;;4.13;1.70;;;9.10;99.90;;;;;;923310;151;27401;-77
2022/11/24 00:39:27;;;;;;;3.70;2.10;;;9.10;99.90;;;;;;923193;151;27477;-77
2022/11/24 00:41:54;;;;;;;5.83;2.20;;;9.20;99.90;;;;;;922371;151;27437;-77
2022/11/24 00:44:20;;;;;;;6.07;2.57;;;9.20;99.90;;;;;;924957;151;27890;-78
2022/11/24 00:46:47;;;;;;;3.00;1.83;;;9.20;99.90;;;;;;924427;151;27377;-77
2022/11/24 00:49:13;;;;;;;5.87;2.27;;;9.20;99.90;;;;;;924239;151;27363;-77
2022/11/24 00:51:40;;;;;;;4.07;2.13;;;9.30;99.90;;;;;;923162;151;27388;-77
2022/11/24 00:54:07;;;;;;;4.53;2.03;;;9.30;99.90;;;;;;921736;151;27526;-78
2022/11/24 00:56:33;;;;;;;7.17;2.60;;;9.30;99.90;;;;;;921878;151;27441;-79
2022/11/24 00:59:00;;;;;;;2.80;1.73;;;9.40;99.90;;;;;;922635;151;27411;-77
2022/11/24 01:01:26;;;;;;;5.43;1.87;;;9.40;99.90;;;;;;925490;151;27405;-77
2022/11/24 01:03:56;;;;;;;7.27;2.43;;;9.40;99.90;;;;;;921606;151;27415;-78
2022/11/24 01:06:22;;;;;;;3.67;2.33;;;9.40;99.90;;;;;;922157;151;27408;-78
2022/11/24 01:08:48;;;;;;;6.47;2.40;;;9.50;99.90;;;;;;920123;151;27497;-78
2022/11/24 01:11:15;;;;;;;7.00;2.43;;;9.50;99.90;;;;;;923816;151;27382;-77
2022/11/24 01:13:42;;;;;;;4.53;2.30;;;9.50;99.90;;;;;;922330;151;27343;-77
2022/11/24 01:16:33;;;;;;;7.50;2.30;;;9.50;99.90;;;;;;922593;151;27395;-77
2022/11/24 01:18:59;;;;;;;5.27;2.40;;;9.50;99.90;;;;;;921976;151;27465;-78
2022/11/24 01:21:26;;;;;;;5.13;2.10;;;9.50;99.90;;;;;;923177;151;27712;-78
2022/11/24 01:23:53;;;;;;;4.77;2.20;;;9.50;99.90;;;;;;922863;151;27850;-78
2022/11/24 01:26:19;;;;;;;5.50;2.10;;;9.50;99.90;;;;;;923418;151;27396;-78
2022/11/24 01:28:46;;;;;;;4.77;2.20;;;9.40;99.90;;;;;;924129;151;27399;-78
2022/11/24 01:31:12;;;;;;;8.50;2.20;;;9.40;99.90;;;;;;925268;151;27473;-77
2022/11/24 01:33:39;;;;;;;5.63;2.67;;;9.40;99.90;;;;;;923346;151;27368;-78
2022/11/24 01:36:06;;;;;;;9.03;2.40;;;9.40;99.90;;;;;;924206;151;27324;-77
2022/11/24 01:38:32;;;;;;;6.13;2.20;;;9.30;99.90;;;;;;927580;151;27402;-77
2022/11/24 01:41:05;;;;;;;4.17;2.20;;;9.30;99.90;;;;;;925823;151;27973;-77
2022/11/24 01:43:31;;;;;;;3.67;1.73;;;9.30;99.90;;;;;;925100;151;27453;-78
2022/11/24 01:45:58;;;;;;;6.70;2.53;;;9.30;99.90;;;;;;924227;151;27317;-77
2022/11/24 01:48:24;;;;;;;6.77;2.27;;;9.30;99.90;;;;;;924641;151;27400;-78
2022/11/24 01:50:52;;;;;;;7.10;2.33;;;9.30;99.90;;;;;;924293;151;27407;-77
2022/11/24 01:53:18;;;;;;;4.87;1.93;;;9.30;99.90;;;;;;924957;151;27375;-77
2022/11/24 01:55:44;;;;;;;6.33;2.20;;;9.30;99.90;;;;;;926373;151;27363;-77
2022/11/24 01:58:13;;;;;;;8.27;2.77;;;9.40;99.90;;;;;;925149;151;27797;-77
2022/11/24 02:00:40;;;;;;;5.37;2.00;;;9.40;99.90;;;;;;924492;151;27442;-78
2022/11/24 02:03:07;;;;;;;7.67;2.93;;;9.50;99.90;;;;;;925042;151;27471;-77
2022/11/24 02:05:36;;;;;;;10.63;2.30;;;9.50;99.90;;;;;;923516;151;27362;-78
2022/11/24 02:08:03;;;;;;;10.63;2.57;;;9.60;99.90;;;;;;923818;151;27493;-78
2022/11/24 02:10:29;;;;;;;7.00;3.03;;;9.60;99.90;;;;;;926700;151;27480;-77
2022/11/24 02:12:56;;;;;;;7.67;2.37;;;9.60;99.90;;;;;;925835;151;27465;-77
2022/11/24 02:15:22;;;;;;;7.80;2.57;;;9.60;99.90;;;;;;927898;151;27466;-77
2022/11/24 02:17:49;;;;;;;6.60;2.80;;;9.70;99.90;;;;;;925004;151;27383;-77
2022/11/24 02:20:16;;;;;;;10.30;2.73;;;9.70;99.90;;;;;;926435;151;27456;-77
2022/11/24 02:23:00;;;;;;;7.03;2.80;;;9.80;99.90;;;;;;926286;151;27343;-78
2022/11/24 02:25:48;;;;;;;7.37;2.80;;;9.80;99.90;;;;;;925799;151;27468;-79
2022/11/24 02:28:15;;;;;;;7.40;2.93;;;9.90;99.90;;;;;;927306;151;27382;-78
2022/11/24 02:30:41;;;;;;;8.43;3.00;;;10.00;99.90;;;;;;935533;149;27368;-77
2022/11/24 02:33:08;;;;;;;6.43;2.40;;;10.00;99.90;;;;;;936024;149;27273;-77
2022/11/24 02:35:34;;;;;;;7.67;2.63;;;10.00;99.90;;;;;;936224;149;27372;-77
2022/11/24 02:38:01;;;;;;;10.13;2.77;;;10.00;99.90;;;;;;938250;149;27666;-78
2022/11/24 02:40:28;;;;;;;8.27;2.83;;;10.10;99.90;;;;;;936199;149;27392;-77
2022/11/24 02:42:54;;;;;;;11.50;3.17;;;10.10;99.90;;;;;;934926;149;27509;-77
2022/11/24 02:45:21;;;;;;;6.50;2.60;;;10.10;99.90;;;;;;938822;149;27371;-77
2022/11/24 02:47:47;;;;;;;8.43;2.87;;;10.20;99.90;;;;;;937797;149;27315;-77
2022/11/24 02:50:14;;;;;;;8.70;2.83;;;10.20;99.90;;;;;;936203;149;27284;-77
2022/11/24 02:52:40;;;;;;;8.67;2.97;;;10.20;99.90;;;;;;925908;149;27321;-77
2022/11/24 02:55:07;;;;;;;10.30;2.87;;;10.20;99.90;;;;;;935631;149;27364;-77
2022/11/24 02:57:34;;;;;;;7.27;2.87;;;10.30;99.90;;;;;;936209;149;27337;-77
2022/11/24 03:00:00;;;;;;;8.40;2.93;;;10.30;99.90;;;;;;934974;149;27355;-77
2022/11/24 03:02:27;;;;;;;13.13;3.33;;;10.30;99.90;;;;;;933974;149;27447;-77
2022/11/24 03:04:53;;;;;;;6.67;2.30;;;10.30;99.90;;;;;;935994;149;27377;-77
2022/11/24 03:07:21;;;;;;;8.67;2.53;;;10.40;99.90;;;;;;938571;146;27329;-78
2022/11/24 03:09:47;;;;;;;8.77;2.70;;;10.40;99.90;;;;;;936131;149;27488;-77
2022/11/24 03:12:13;;;;;;;7.53;3.20;;;10.40;99.90;;;;;;937059;149;28788;-77
2022/11/24 03:14:40;;;;;;;12.43;3.23;;;10.50;99.90;;;;;;928678;149;27324;-77
2022/11/24 03:17:06;;;;;;;7.53;2.70;;;10.50;99.90;;;;;;936447;149;27337;-78
2022/11/24 03:19:33;;;;;;;8.60;3.33;;;10.50;99.90;;;;;;934733;149;27411;-78
2022/11/24 03:21:59;;;;;;;6.90;2.73;;;10.50;99.90;;;;;;936191;149;27387;-77
2022/11/24 03:24:26;;;;;;;11.03;2.90;;;10.60;99.90;;;;;;934903;149;27382;-77
2022/11/24 03:26:53;;;;;;;10.00;2.70;;;10.60;99.90;;;;;;935060;149;27441;-77
2022/11/24 03:29:19;;;;;;;5.43;2.57;;;10.60;99.90;;;;;;933054;149;27525;-77
2022/11/24 03:31:46;;;;;;;8.97;2.57;;;10.60;99.90;;;;;;931260;150;27444;-78
2022/11/24 03:34:12;;;;;;;6.73;2.83;;;10.60;99.90;;;;;;930194;149;27515;-78
2022/11/24 03:36:39;;;;;;;5.17;2.30;;;10.60;99.90;;;;;;920966;150;27461;-77
2022/11/24 03:39:06;;;;;;;4.73;2.87;;;10.60;99.90;;;;;;917085;150;27457;-77
2022/11/24 03:41:32;;;;;;;9.77;2.80;;;10.60;99.90;;;;;;920376;150;27402;-77
2022/11/24 03:43:59;;;;;;;7.43;2.97;;;10.60;99.90;;;;;;919260;150;27292;-77
2022/11/24 03:46:25;;;;;;;16.17;4.37;;;10.60;99.90;;;;;;918107;150;27399;-78
2022/11/24 03:48:52;;;;;;;11.20;3.00;;;10.50;99.90;;;;;;920049;150;27463;-77
2022/11/24 03:51:19;;;;;;;10.43;3.10;;;10.50;99.90;;;;;;920819;150;27431;-77
2022/11/24 03:53:48;;;;;;;7.97;3.00;;;10.50;99.90;;;;;;917289;150;27309;-78
2022/11/24 03:56:15;;;;;;;8.40;2.47;;;10.40;99.90;;;;;;917023;150;27486;-79
2022/11/24 03:58:41;;;;;;;5.33;2.30;;;10.40;99.90;;;;;;918400;150;27379;-79
2022/11/24 04:01:07;;;;;;;8.03;2.83;;;10.40;99.90;;;;;;933395;147;27365;-78
2022/11/24 04:03:34;;;;;;;5.27;2.80;;;10.30;99.90;;;;;;932339;147;27330;-78
2022/11/24 04:06:01;;;;;;;9.00;2.70;;;10.30;99.90;;;;;;917924;150;27334;-78
2022/11/24 04:08:27;;;;;;;9.20;2.93;;;10.20;99.90;;;;;;939339;146;27482;-79
2022/11/24 04:10:54;;;;;;;6.27;2.93;;;10.20;99.90;;;;;;929847;149;27457;-78
2022/11/24 04:13:20;;;;;;;7.60;3.20;;;10.10;99.90;;;;;;932467;149;27437;-79
2022/11/24 04:15:47;;;;;;;8.73;3.20;;;10.10;99.90;;;;;;930091;149;27394;-78
2022/11/24 04:18:14;;;;;;;6.27;2.87;;;10.10;99.90;;;;;;932300;149;27449;-79
2022/11/24 04:20:40;;;;;;;9.53;3.43;;;10.00;99.90;;;;;;920602;150;27832;-78
2022/11/24 04:23:07;;;;;;;12.87;2.93;;;10.00;99.90;;;;;;920040;150;27709;-79
2022/11/24 04:25:33;;;;;;;7.10;2.90;;;10.00;99.90;;;;;;922431;150;27466;-79
2022/11/24 04:28:00;;;;;;;9.33;2.93;;;9.90;99.90;;;;;;919188;151;27373;-79
2022/11/24 04:30:26;;;;;;;10.77;3.60;;;9.90;99.90;;;;;;933174;147;27328;-79
2022/11/24 04:32:53;;;;;;;11.37;2.97;;;9.90;99.90;;;;;;916914;150;27375;-79
2022/11/24 04:35:20;;;;;;;9.87;2.53;;;9.90;99.90;;;;;;921296;150;27330;-79
2022/11/24 04:37:46;;;;;;;10.23;3.20;;;10.00;99.90;;;;;;933174;147;27483;-78
2022/11/24 04:40:13;;;;;;;8.20;2.53;;;10.00;99.90;;;;;;918188;150;27421;-79
2022/11/24 04:42:39;;;;;;;9.87;3.53;;;10.00;99.90;;;;;;933051;147;27317;-79
2022/11/24 04:45:06;;;;;;;9.30;2.87;;;10.00;99.90;;;;;;933888;147;27330;-79
2022/11/24 04:47:33;;;;;;;8.70;2.70;;;10.00;99.90;;;;;;934037;147;27660;-79
2022/11/24 04:49:59;;;;;;;10.10;2.87;;;10.00;99.90;;;;;;935055;147;27326;-79
2022/11/24 04:52:26;;;;;;;11.00;3.00;;;10.10;99.90;;;;;;918679;150;27354;-79
2022/11/24 04:54:52;;;;;;;11.50;3.07;;;10.10;99.90;;;;;;934318;147;27345;-79
2022/11/24 04:57:22;;;;;;;7.70;2.97;;;10.20;99.90;;;;;;917991;150;27284;-79
2022/11/24 04:59:49;;;;;;;8.97;3.47;;;10.20;99.90;;;;;;932136;147;27334;-79
2022/11/24 05:02:15;;;;;;;7.60;2.93;;;10.20;99.90;;;;;;934061;147;27893;-79
2022/11/24 05:04:42;;;;;;;8.83;2.87;;;10.30;99.90;;;;;;917434;150;27675;-79
2022/11/24 05:07:11;;;;;;;6.90;2.43;;;10.40;99.90;;;;;;931455;147;27354;-79
2022/11/24 05:10:33;;;;;;;5.87;3.07;;;10.40;99.90;;;;;;926620;150;27406;-79
2022/11/24 05:12:04;;;;;;;6.90;2.27;;;10.50;99.90;;;;;;933429;147;27456;-79
2022/11/24 05:14:31;;;;;;;9.37;2.60;;;10.50;99.90;;;;;;916679;150;27293;-79
2022/11/24 05:16:57;;;;;;;10.00;3.23;;;10.60;99.90;;;;;;932184;147;27354;-79
2022/11/24 05:19:24;;;;;;;9.03;2.67;;;10.70;99.90;;;;;;931101;150;27362;-79
2022/11/24 05:21:51;;;;;;;7.97;3.37;;;10.70;99.90;;;;;;917791;150;27363;-79
2022/11/24 05:24:17;;;;;;;10.23;2.70;;;10.80;99.90;;;;;;932586;147;27331;-79
2022/11/24 05:26:44;;;;;;;8.07;2.87;;;10.90;99.90;;;;;;935510;147;27271;-79
2022/11/24 05:29:10;;;;;;;11.93;3.23;;;10.90;99.90;;;;;;932964;147;27479;-79
2022/11/24 05:31:37;;;;;;;12.27;3.70;;;10.90;99.90;;;;;;930764;147;27394;-79
2022/11/24 05:34:03;;;;;;;8.57;2.77;;;11.00;99.90;;;;;;927458;150;27454;-78
2022/11/24 05:39:15;;;;;;;6.33;2.43;;;11.10;99.90;;;;;;916438;150;27357;-80
2022/11/24 05:41:41;;;;;;;11.53;3.03;;;11.10;99.90;;;;;;932288;149;27375;-79
2022/11/24 05:44:08;;;;;;;7.57;2.23;;;11.10;99.90;;;;;;939312;146;27316;-79
2022/11/24 05:46:35;;;;;;;8.10;2.80;;;11.10;99.90;;;;;;926710;150;27432;-79
2022/11/24 05:49:01;;;;;;;11.00;3.07;;;11.10;99.90;;;;;;936508;150;27305;-79
2022/11/24 05:51:29;;;;;;;7.87;2.80;;;11.20;99.90;;;;;;931262;149;27367;-79
2022/11/24 05:53:54;;;;;;;10.50;2.83;;;11.20;99.90;;;;;;929976;150;27352;-79
2022/11/24 05:56:21;;;;;;;8.77;3.03;;;11.20;99.90;;;;;;931263;150;27342;-79
2022/11/24 05:58:48;;;;;;;10.07;3.30;;;11.20;99.90;;;;;;916667;150;27808;-79
2022/11/24 06:01:14;;;;;;;6.70;2.70;;;11.30;99.90;;;;;;916483;150;27329;-79
2022/11/24 06:03:41;;;;;;;12.43;3.40;;;11.30;99.90;;;;;;933930;147;27298;-79
2022/11/24 06:06:07;;;;;;;8.00;3.10;;;11.30;99.90;;;;;;932320;147;27382;-79
2022/11/24 06:08:34;;;;;;;7.87;2.57;;;11.30;99.90;;;;;;918185;150;27459;-80
2022/11/24 06:11:18;;;;;;;10.10;2.83;;;11.40;99.90;;;;;;932076;147;27438;-79
2022/11/24 06:13:30;;;;;;;12.23;3.43;;;11.40;99.90;;;;;;915798;150;27386;-79
2022/11/24 06:15:56;;;;;;;10.37;3.30;;;11.40;99.90;;;;;;915517;150;27321;-79
2022/11/24 06:18:23;;;;;;;12.00;3.27;;;11.40;99.90;;;;;;931076;149;27320;-80
2022/11/24 06:20:49;;;;;;;11.50;3.60;;;11.50;99.90;;;;;;928819;150;27496;-79
2022/11/24 06:23:16;;;;;;;11.17;3.10;;;11.50;99.90;;;;;;920956;150;27395;-79
2022/11/24 06:25:42;;;;;;;9.87;3.10;;;11.50;99.90;;;;;;931461;147;27395;-79
2022/11/24 06:28:09;;;;;;;10.27;3.43;;;11.50;99.90;;;;;;918087;150;27351;-80
2022/11/24 06:30:36;;;;;;;11.50;3.20;;;11.50;99.90;;;;;;938690;146;27266;-79
2022/11/24 06:33:02;;;;;;;9.67;2.50;;;11.50;99.90;;;;;;935137;149;27340;-79
2022/11/24 06:35:29;;;;;;;7.03;2.40;;;11.50;99.90;;;;;;938879;149;27369;-79
2022/11/24 06:37:55;;;;;;;6.70;2.53;;;11.50;99.90;;;;;;944158;147;28540;-79
2022/11/24 06:40:22;;;;;;;8.67;3.87;;;11.50;99.90;;;;;;952892;146;27374;-79
2022/11/24 06:42:51;;;;;;;8.10;2.80;;;11.60;99.90;;;;;;950706;146;27426;-79
2022/11/24 06:45:18;;;;;;;12.57;3.03;;;11.60;99.90;;;;;;952160;146;27433;-79
2022/11/24 06:47:44;;;;;;;8.23;3.33;;;11.60;99.90;;;;;;935557;149;27803;-79
2022/11/24 06:50:11;;;;;;;10.67;2.63;;;11.60;99.90;;;;;;947567;149;27309;-79
2022/11/24 06:52:38;;;;;;;9.13;3.00;;;11.60;99.90;;;;;;948879;149;27297;-79
2022/11/24 06:55:04;;;;;;;9.03;3.07;;;11.60;99.90;;;;;;946854;149;27333;-79
2022/11/24 06:57:31;;;;;;;6.37;2.30;;;11.60;99.90;;;;;;951344;146;27334;-79
2022/11/24 06:59:57;;;;;;;10.67;3.07;;;11.60;99.90;;;;;;944154;148;27478;-79
2022/11/24 07:02:24;;;;;;;9.33;3.10;;;11.60;99.90;;;;;;951931;146;27352;-79
2022/11/24 07:04:51;;;;;;;6.33;2.50;;;11.60;99.90;;;;;;936913;149;27331;-79
2022/11/24 07:07:17;;;;;;;14.53;3.80;;;11.60;99.90;;;;;;940850;149;27246;-79
2022/11/24 07:09:44;;;;;;;8.90;2.60;;;11.60;99.90;;;;;;937247;149;27357;-79
2022/11/24 07:12:10;;;;;;;6.90;2.60;;;11.60;99.90;;;;;;954812;146;27360;-79
2022/11/24 07:14:37;;;;;;;8.43;2.87;;;11.60;99.90;;;;;;946483;149;27338;-79
2022/11/24 07:17:04;;;;;;;6.73;3.10;;;11.60;99.90;;;;;;949329;149;27295;-79
2022/11/24 07:19:30;;;;;;;8.50;2.90;;;11.60;99.90;;;;;;945690;149;27320;-79
2022/11/24 07:21:57;;;;;;;9.53;3.20;;;11.60;99.90;;;;;;948516;149;27436;-79
2022/11/24 07:24:23;;;;;;;8.90;3.30;;;11.60;99.90;;;;;;946332;149;27359;-79
2022/11/24 07:26:50;;;;;;;10.83;2.83;;;11.60;99.90;;;;;;947358;149;27437;-80
2022/11/24 07:29:16;;;;;;;12.90;3.37;;;11.60;99.90;;;;;;947073;149;27406;-79
2022/11/24 07:31:44;;;;;;;8.43;2.57;;;11.60;99.90;;;;;;947694;149;27907;-79
2022/11/24 07:34:10;;;;;;;12.63;3.20;;;11.60;99.90;;;;;;949869;148;27360;-79
2022/11/24 07:36:36;;;;;;;8.47;2.80;;;11.60;99.90;;;;;;951463;148;27347;-79
2022/11/24 07:39:03;;;;;;;7.07;2.87;;;11.60;99.90;;;;;;952553;148;27343;-79
2022/11/24 07:41:29;;;;;;;5.83;2.50;;;11.60;99.90;;;;;;950871;148;28356;-79
2022/11/24 07:43:56;;;;;;;9.17;2.53;;;11.60;99.90;;;;;;949939;149;27301;-79
2022/11/24 07:46:23;;;;;;;5.87;2.47;;;11.60;99.90;;;;;;953136;148;27306;-79
2022/11/24 07:48:49;;;;;;;12.40;2.90;;;11.60;99.90;;;;;;951493;149;27316;-79
2022/11/24 07:51:16;;;;;;;9.60;3.60;;;11.60;99.90;;;;;;951799;148;27361;-79
2022/11/24 07:53:42;;;;;;;9.30;2.87;;;11.60;99.90;;;;;;952436;148;27361;-80
2022/11/24 07:56:09;;;;;;;7.43;2.90;;;11.70;99.90;;;;;;950308;148;27418;-79
2022/11/24 07:58:36;;;;;;;8.13;2.87;;;11.70;99.90;;;;;;952781;149;27312;-79
2022/11/24 08:01:09;;;;;;;7.20;3.00;;;11.70;99.90;;;;;;951447;148;27319;-79
2022/11/24 08:03:35;;;;;;;7.90;3.90;;;11.70;99.90;;;;;;951205;149;27410;-79
2022/11/24 08:06:01;;;;;;;11.23;3.63;;;11.70;99.90;;;;;;951554;149;27456;-79
2022/11/24 08:08:31;;;;;;;10.43;2.80;;;11.70;99.90;;;;;;951503;148;27361;-79
2022/11/24 08:10:54;;;;;;;7.57;2.97;;;11.70;99.90;;;;;;950440;148;27313;-79
2022/11/24 08:13:21;;;;;;;8.43;2.60;;;11.70;99.90;;;;;;950530;149;27306;-79
2022/11/24 08:15:48;;;;;;;10.97;2.70;;;11.80;99.90;;;;;;951581;148;27335;-79
2022/11/24 08:18:14;;;;;;;4.40;2.43;;;11.80;99.90;;;;;;952014;149;27368;-79
2022/11/24 08:20:41;;;;;;;7.13;3.07;;;11.80;99.90;;;;;;952636;149;27339;-79
2022/11/24 08:23:07;;;;;;;6.10;2.30;;;11.90;99.90;;;;;;952445;149;27434;-79
2022/11/24 08:25:35;;;;;;;12.50;2.93;;;11.90;99.90;;;;;;950913;148;27340;-79
2022/11/24 08:28:01;;;;;;;7.53;2.87;;;11.90;99.90;;;;;;950134;148;27349;-79
2022/11/24 08:30:27;;;;;;;5.70;2.73;;;12.00;99.90;;;;;;950846;149;27356;-79
2022/11/24 08:32:54;;;;;;;9.27;2.67;;;12.00;99.90;;;;;;946420;148;27376;-79
2022/11/24 08:35:20;;;;;;;8.23;2.60;;;12.00;99.90;;;;;;940646;148;27310;-79
2022/11/24 08:37:47;;;;;;;6.20;3.20;;;12.10;99.90;;;;;;939590;149;27334;-79
2022/11/24 08:40:13;;;;;;;9.90;2.97;;;12.10;99.90;;;;;;941798;149;27420;-79
2022/11/24 08:42:40;;;;;;;9.67;2.90;;;12.10;99.90;;;;;;939480;150;27379;-79
2022/11/24 08:45:07;;;;;;;6.83;2.13;;;12.10;99.90;;;;;;940347;150;27353;-79
2022/11/24 08:47:33;;;;;;;5.47;2.17;;;12.20;99.90;;;;;;940212;149;27886;-79
2022/11/24 08:50:00;;;;;;;10.30;3.23;;;12.20;99.90;;;;;;940696;150;27343;-79
2022/11/24 08:52:26;;;;;;;7.50;2.60;;;12.20;99.90;;;;;;941232;150;27992;-79
2022/11/24 08:54:53;;;;;;;6.93;2.07;;;12.20;99.90;;;;;;940925;150;27303;-80
2022/11/24 08:57:20;;;;;;;6.23;2.37;;;12.20;99.90;;;;;;941157;150;27365;-79
2022/11/24 08:59:46;;;;;;;5.73;1.90;;;12.20;99.90;;;;;;941041;150;27355;-79
2022/11/24 09:02:13;;;;;;;7.30;2.10;;;12.20;99.90;;;;;;941435;150;27339;-79
2022/11/24 09:04:39;;;;;;;7.23;2.07;;;12.20;99.90;;;;;;941245;150;27414;-80
2022/11/24 09:07:06;;;;;;;6.43;2.37;;;12.20;99.90;;;;;;941271;150;27279;-79
2022/11/24 09:09:32;;;;;;;7.07;2.57;;;12.20;99.90;;;;;;940460;148;27961;-79
2022/11/24 09:11:59;;;;;;;5.25;2.45;;;12.30;99.90;;;;;;940712;150;27459;-79
2022/11/24 09:14:26;;;;;;;6.55;1.90;;;12.40;99.90;;;;;;940835;150;27301;-80
2022/11/24 09:16:52;;;;;;;6.80;2.00;;;12.40;99.90;;;;;;940480;150;27276;-79
2022/11/24 09:19:19;;;;;;;6.67;2.03;;;12.50;99.90;;;;;;939907;148;27424;-79
2022/11/24 09:21:45;;;;;;;6.17;2.20;;;12.60;99.90;;;;;;940276;150;27440;-80
2022/11/24 09:24:12;;;;;;;7.27;2.37;;;12.60;99.90;;;;;;939090;150;27334;-80
2022/11/24 09:26:39;;;;;;;8.98;2.08;;;12.70;99.90;;;;;;940492;150;27352;-80
2022/11/24 09:29:06;;;;;;;6.58;2.37;;;12.80;99.90;;;;;;940693;150;27319;-80
2022/11/24 09:31:35;;;;;;;7.77;2.20;;;12.80;99.90;;;;;;940914;148;27371;-79
2022/11/24 09:33:58;;;;;;;5.40;2.13;;;12.80;99.90;;;;;;938571;148;27464;-80
2022/11/24 09:36:25;;;;;;;7.43;2.30;;;12.80;99.90;;;;;;941211;148;27327;-80
2022/11/24 09:38:52;;;;;;;5.78;2.25;;;12.80;99.90;;;;;;941399;150;27436;-80
2022/11/24 09:41:33;;;;;;;7.03;1.90;;;12.90;99.90;;;;;;940334;150;27280;-80
2022/11/24 09:44:21;;;;;;;3.43;1.57;;;12.90;99.90;;;;;;941036;150;27310;-79
2022/11/24 09:47:09;;;;;;;3.37;1.90;;;13.00;99.90;;;;;;940323;150;27385;-79
2022/11/24 09:49:41;;;;;;;6.07;2.20;;;13.10;99.90;;;;;;941791;148;27290;-79
2022/11/24 09:52:07;;;;;;;5.10;2.15;;;13.20;99.90;;;;;;941612;150;27770;-79
2022/11/24 09:54:34;;;;;;;5.90;3.47;;;13.30;99.90;;;;;;940143;150;27313;-79
2022/11/24 09:57:01;;;;;;;8.10;3.40;;;13.50;99.90;;;;;;940028;150;27306;-79
2022/11/24 09:59:27;;;;;;;6.03;2.37;;;13.60;99.90;;;;;;942699;150;27274;-79
2022/11/24 10:01:55;;;;;;;5.90;2.17;;;13.80;99.90;;;;;;941614;150;27428;-79
2022/11/24 10:04:20;;;;;;;7.30;2.52;;;14.00;99.90;;;;;;939765;149;27371;-79
2022/11/24 10:07:02;;;;;;;3.98;2.15;;;14.10;99.90;;;;;;940879;150;27415;-79
2022/11/24 10:09:47;;;;;;;4.40;2.15;;;14.30;99.90;;;;;;940368;150;27383;-79
2022/11/24 10:12:39;;;;;;;6.65;2.40;;;14.40;99.90;;;;;;939418;148;27940;-79
2022/11/24 10:15:24;;;;;;;6.28;2.30;;;14.50;99.40;;;;;;939903;150;27354;-79
2022/11/24 10:17:52;;;;;;;4.83;2.00;;;14.50;99.20;;;;;;940034;150;27420;-80
2022/11/24 10:20:22;;;;;;;4.42;1.98;;;14.60;98.60;;;;;;939694;150;27349;-79
2022/11/24 10:22:51;;;;;;;6.62;2.30;;;14.60;98.10;;;;;;939803;150;27379;-80
2022/11/24 10:25:39;;;;;;;6.17;1.92;;;14.70;97.90;;;;;;938876;150;27373;-79
2022/11/24 10:28:05;;;;;;;7.42;2.33;;;14.70;97.60;;;;;;942260;150;27322;-80
2022/11/24 10:30:32;;;;;;;3.27;2.08;;;14.70;96.80;;;;;;943022;148;27418;-79
2022/11/24 10:32:59;;;;;;;5.15;2.72;;;14.70;96.40;;;;;;941616;150;27429;-79
2022/11/24 10:35:37;;;;;;;5.35;2.47;;;14.70;96.20;;;;;;941123;150;27434;-80
2022/11/24 10:38:16;;;;;;;4.70;2.40;;;14.70;95.60;;;;;;940680;150;27455;-79
2022/11/24 10:40:43;;;;;;;7.55;2.08;;;14.70;95.60;;;;;;936145;150;27405;-80
2022/11/24 10:43:09;;;;;;;4.80;2.30;;;14.70;95.20;;;;;;939100;150;27342;-80
2022/11/24 10:45:38;;;;;;;6.15;2.15;;;14.70;95.30;;;;;;940971;150;27335;-79
2022/11/24 10:48:02;;;;;;;6.47;2.77;;;14.70;95.40;;;;;;941923;148;27295;-79
2022/11/24 10:50:32;;;;;;;6.87;2.60;;;14.70;96.00;;;;;;943162;146;27314;-80
2022/11/24 10:53:26;;;;;;;5.17;2.37;;;14.80;96.40;;;;;;943586;149;27337;-79
2022/11/24 10:55:55;;;;;;;5.53;4.22;;;14.90;96.60;;;;;;941318;150;27331;-80
2022/11/24 10:58:22;;;;;;;5.80;2.75;;;15.00;96.20;;;;;;942061;150;27630;-80
2022/11/24 11:00:48;;;;;;;10.65;5.25;;;15.10;95.70;;;;;;938744;150;27419;-80
2022/11/24 11:03:15;;;;;;;9.40;4.17;;;15.20;95.20;;;;;;942743;150;27362;-80
2022/11/24 11:05:42;;;;;;;7.75;2.92;;;15.30;94.70;;;;;;940346;150;27308;-80
2022/11/24 11:08:14;;;;;;;4.62;2.72;;;15.40;94.30;;;;;;939777;148;27456;-80
2022/11/24 11:10:40;;;;;;;5.92;2.40;;;15.40;93.60;;;;;;942978;150;27758;-80
2022/11/24 11:13:25;;;;;;;4.72;2.00;;;15.50;93.40;;;;;;941818;148;27448;-80
2022/11/24 11:15:52;;;;;;;6.10;2.00;;;15.50;93.00;;;;;;941481;150;27881;-80
2022/11/24 11:18:19;;;;;;;7.47;2.52;;;15.50;92.50;;;;;;940832;150;27325;-80
2022/11/24 11:20:51;;;;;;;4.03;2.17;;;15.50;92.10;;;;;;942837;150;27347;-80
2022/11/24 11:23:21;;;;;;;6.25;3.15;;;15.50;91.80;;;;;;940411;150;27413;-80
2022/11/24 11:25:47;;;;;;;8.38;2.27;;;15.50;92.00;;;;;;938947;150;27336;-80
2022/11/24 11:28:16;;;;;;;19.45;5.75;;;15.50;92.10;;;;;;941418;150;27324;-80
2022/11/24 11:31:01;;;;;;;28.05;8.78;;;15.50;91.80;;;;;;940162;148;27374;-80
2022/11/24 11:33:28;;;;;;;11.03;4.37;;;15.60;91.50;;;;;;941903;150;27317;-81
2022/11/24 11:35:54;;;;;;;12.53;3.98;;;15.60;91.80;;;;;;944989;149;27459;-80
2022/11/24 11:38:21;;;;;;;9.70;3.35;;;15.60;91.50;;;;;;948791;149;27424;-80
2022/11/24 11:40:50;;;;;;;7.42;2.75;;;15.60;91.30;;;;;;950521;149;27313;-80
2022/11/24 11:43:26;;;;;;;9.23;3.70;;;15.60;90.90;;;;;;946600;149;27714;-80
2022/11/24 11:46:01;;;;;;;6.65;3.20;;;15.60;90.80;;;;;;945998;149;27301;-80
2022/11/24 11:48:33;;;;;;;7.92;2.60;;;15.60;90.70;;;;;;946622;149;27333;-80
2022/11/24 11:51:03;;;;;;;6.67;2.58;;;15.70;90.40;;;;;;946407;149;27943;-80
2022/11/24 11:53:45;;;;;;;6.03;2.17;;;15.70;90.20;;;;;;946908;149;27708;-80
2022/11/24 11:56:26;;;;;;;3.65;2.20;;;15.60;90.00;;;;;;946239;148;27338;-80
2022/11/24 11:59:05;;;;;;;2.58;1.70;;;15.60;89.50;;;;;;946850;149;27391;-80
2022/11/24 12:01:43;;;;;;;2.83;1.50;;;15.60;88.20;;;;;;947198;149;27802;-80
2022/11/24 12:04:33;;;;;;;2.90;1.52;;;15.50;87.10;;;;;;946208;149;27431;-80
2022/11/24 12:07:22;;;;;;;4.55;1.65;;;15.50;86.50;;;;;;948107;149;27292;-80
2022/11/24 12:09:54;;;;;;;4.72;2.33;;;15.40;86.10;;;;;;946536;149;27434;-80
2022/11/24 12:12:39;;;;;;;5.45;2.55;;;15.30;85.90;;;;;;947476;149;27399;-79
2022/11/24 12:15:18;;;;;;;4.12;2.30;;;15.20;86.20;;;;;;946885;149;27314;-79
2022/11/24 12:18:05;;;;;;;4.58;2.55;;;15.10;86.10;;;;;;946094;149;27352;-79
2022/11/24 12:20:53;;;;;;;7.25;2.85;;;15.00;86.40;;;;;;947032;149;27360;-79
2022/11/24 12:23:31;;;;;;;3.35;1.90;;;15.00;86.50;;;;;;947650;149;27316;-80
2022/11/24 12:26:09;;;;;;;4.90;1.90;;;14.90;86.60;;;;;;946962;149;27462;-80
2022/11/24 12:28:45;;;;;;;4.05;1.87;;;14.90;87.00;;;;;;949318;149;27341;-79
2022/11/24 12:31:23;;;;;;;5.58;1.62;;;14.90;87.60;;;;;;945451;149;27358;-79
2022/11/24 12:34:17;;;;;;;5.90;1.90;;;15.00;87.80;;;;;;940103;149;27402;-80
2022/11/24 12:36:55;;;;;;;4.05;1.60;;;15.00;88.20;;;;;;921206;150;27334;-79
2022/11/24 12:39:25;;;;;;;6.10;2.20;;;15.10;88.40;;;;;;940075;150;27301;-79
2022/11/24 12:42:12;;;;;;;4.72;2.08;;;15.20;88.20;;;;;;942224;150;27359;-79
2022/11/24 12:44:45;;;;;;;4.35;1.60;;;15.30;88.10;;;;;;939656;150;28432;-80
2022/11/24 12:47:26;;;;;;;3.83;1.98;;;15.40;87.80;;;;;;939606;150;27282;-80
2022/11/24 12:50:07;;;;;;;2.22;1.32;;;15.50;86.70;;;;;;940764;148;27350;-80
2022/11/24 12:52:34;;;;;;;3.27;1.40;;;15.50;85.90;;;;;;942407;150;27347;-80
2022/11/24 12:55:00;;;;;;;4.67;1.40;;;15.50;85.20;;;;;;941555;149;28766;-80
2022/11/24 12:57:27;;;;;;;5.90;1.65;;;15.50;84.50;;;;;;941852;150;27283;-80